Time;durP1;ratioP1;P1;durP2;ratioP2;P2;SDS_P1;SDS_P2;PMS_P1;PMS_P2;Temp;Humidity;BMP_temperature;BMP_pressure;BME280_temperature;BME280_humidity;BME280_pressure;Samples;Min_cycle;Max_cycle;Signal;HPM_P1;HPM_P2
2024/03/28 00:01:00;;;;;;;12.70;9.20;;;;;;;12.29;54.04;97952.86;110677;1260;24941;-68
2024/03/28 00:03:41;;;;;;;17.20;10.30;;;;;;;12.26;53.81;97954.86;110748;1260;23403;-69
2024/03/28 00:06:09;;;;;;;15.70;10.00;;;;;;;12.23;53.93;97955.59;110705;1260;21966;-69
2024/03/28 00:08:38;;;;;;;16.10;11.40;;;;;;;12.17;54.11;97954.93;110713;1260;21967;-68
2024/03/28 00:11:06;;;;;;;17.10;9.80;;;;;;;12.14;54.15;97949.69;110748;1260;21962;-68
2024/03/28 00:13:35;;;;;;;12.90;8.70;;;;;;;12.10;54.46;97948.80;110738;1260;21966;-68
2024/03/28 00:16:04;;;;;;;13.30;9.50;;;;;;;12.03;54.33;97942.16;110720;1259;23775;-68
2024/03/28 00:18:32;;;;;;;14.40;9.70;;;;;;;12.01;54.41;97939.56;110786;1260;21965;-68
2024/03/28 00:21:02;;;;;;;14.30;8.90;;;;;;;11.98;54.74;97936.63;110694;1260;21971;-69
2024/03/28 00:23:31;;;;;;;12.90;9.10;;;;;;;11.97;54.52;97930.79;110704;1260;23773;-68
2024/03/28 00:26:00;;;;;;;12.50;8.90;;;;;;;11.95;54.81;97928.15;110689;1260;23600;-68
2024/03/28 00:28:29;;;;;;;16.70;9.50;;;;;;;11.93;54.86;97922.40;110726;1260;21969;-69
2024/03/28 00:30:57;;;;;;;12.80;9.10;;;;;;;11.90;54.93;97918.34;110696;1260;22456;-68
2024/03/28 00:33:26;;;;;;;12.60;8.20;;;;;;;11.87;55.08;97916.40;110675;1260;23579;-67
2024/03/28 00:35:55;;;;;;;14.80;7.80;;;;;;;11.85;54.76;97916.98;110740;1260;21962;-68
2024/03/28 00:38:23;;;;;;;12.90;7.70;;;;;;;11.84;54.96;97911.81;110690;1260;21999;-68
2024/03/28 00:40:54;;;;;;;13.10;8.00;;;;;;;11.82;55.13;97913.31;110706;1260;23683;-68
2024/03/28 00:43:23;;;;;;;17.20;9.80;;;;;;;11.81;55.21;97907.92;110765;1260;23025;-68
2024/03/28 00:45:51;;;;;;;16.90;11.10;;;;;;;11.80;55.32;97901.85;110796;1260;23014;-66
2024/03/28 00:48:21;;;;;;;16.20;11.50;;;;;;;11.79;55.19;97901.69;110661;1260;22431;-68
2024/03/28 00:50:57;;;;;;;15.20;10.70;;;;;;;11.76;55.67;97896.02;110734;1260;21983;-68
2024/03/28 00:53:26;;;;;;;14.70;10.40;;;;;;;11.71;55.62;97894.39;110802;1260;21973;-69
2024/03/28 00:55:58;;;;;;;13.50;8.40;;;;;;;11.70;55.67;97897.77;110734;1260;23516;-67
2024/03/28 00:58:27;;;;;;;15.60;8.90;;;;;;;11.62;55.94;97889.84;110745;1260;22425;-68
2024/03/28 01:00:56;;;;;;;12.80;7.30;;;;;;;11.57;56.26;97882.89;110832;1260;21967;-68
2024/03/28 01:03:24;;;;;;;15.70;7.40;;;;;;;11.55;55.94;97881.02;110726;1260;22752;-68
2024/03/28 01:06:00;;;;;;;11.30;7.40;;;;;;;11.56;55.92;97881.23;110754;1260;21956;-69
2024/03/28 01:08:28;;;;;;;10.70;7.50;;;;;;;11.56;56.05;97877.33;110779;1260;23624;-68
2024/03/28 01:10:57;;;;;;;11.10;7.60;;;;;;;11.57;55.89;97874.88;110771;1260;22139;-68
2024/03/28 01:13:25;;;;;;;11.00;7.00;;;;;;;11.60;55.79;97869.84;110675;1260;22107;-67
2024/03/28 01:15:57;;;;;;;13.80;7.00;;;;;;;11.62;55.88;97867.41;110704;1260;24289;-68
2024/03/28 01:18:26;;;;;;;;;;;;;;;11.64;55.69;97865.05;110390;1260;24356;-67
2024/03/28 01:20:55;;;;;;;10.90;7.10;;;;;;;11.57;55.84;97857.63;110802;1260;21969;-68
2024/03/28 01:23:23;;;;;;;12.00;7.40;;;;;;;11.61;55.84;97851.60;110715;1260;22751;-68
2024/03/28 01:25:52;;;;;;;13.90;7.40;;;;;;;11.64;55.89;97844.80;110723;1259;21970;-68
2024/03/28 01:28:20;;;;;;;16.60;8.00;;;;;;;11.67;55.86;97838.98;110732;1260;22047;-67
2024/03/28 01:30:55;;;;;;;15.70;8.40;;;;;;;11.67;56.03;97835.00;110726;1260;21961;-68
2024/03/28 01:33:24;;;;;;;17.30;8.10;;;;;;;11.65;56.09;97834.87;110623;1260;21961;-68
2024/03/28 01:35:53;;;;;;;16.80;8.80;;;;;;;11.63;56.11;97832.81;110671;1260;23683;-68
2024/03/28 01:38:21;;;;;;;11.50;8.30;;;;;;;11.60;55.87;97830.55;110699;1260;21959;-68
2024/03/28 01:40:50;;;;;;;13.40;8.90;;;;;;;11.54;56.19;97828.91;110703;1260;22281;-68
2024/03/28 01:43:19;;;;;;;12.00;9.00;;;;;;;11.50;56.32;97826.02;110639;1260;23590;-68
2024/03/28 01:45:48;;;;;;;14.20;9.20;;;;;;;11.48;56.57;97822.86;110695;1260;21975;-68
2024/03/28 01:48:17;;;;;;;14.20;10.30;;;;;;;11.48;56.62;97817.77;110663;1260;23036;-69
2024/03/28 01:50:46;;;;;;;14.20;9.10;;;;;;;11.47;56.70;97815.92;110661;1260;23693;-68
2024/03/28 01:53:15;;;;;;;13.00;8.00;;;;;;;11.46;56.55;97813.59;110643;1260;22855;-68
2024/03/28 01:55:44;;;;;;;10.30;7.70;;;;;;;11.42;56.83;97815.27;110628;1260;22012;-69
2024/03/28 01:58:13;;;;;;;12.10;9.20;;;;;;;11.36;56.91;97811.08;110546;1260;23685;-68
2024/03/28 02:00:42;;;;;;;12.30;7.90;;;;;;;11.33;56.99;97812.48;110609;1260;22008;-69
2024/03/28 02:03:10;;;;;;;12.20;8.10;;;;;;;11.29;57.25;97816.59;110698;1260;21965;-68
2024/03/28 02:05:39;;;;;;;11.60;7.70;;;;;;;11.27;57.02;97816.31;110712;1260;21997;-68
2024/03/28 02:08:08;;;;;;;15.70;8.10;;;;;;;11.26;57.35;97816.38;110673;1260;23044;-68
2024/03/28 02:10:38;;;;;;;10.80;6.90;;;;;;;11.26;57.44;97815.13;110685;1260;21970;-67
2024/03/28 02:13:08;;;;;;;15.10;8.30;;;;;;;11.28;57.62;97808.44;110796;1260;22007;-68
2024/03/28 02:15:37;;;;;;;14.10;7.90;;;;;;;11.29;57.67;97802.70;110777;1260;22729;-69
2024/03/28 02:18:06;;;;;;;10.50;7.70;;;;;;;11.29;57.57;97800.58;110787;1260;21960;-69
2024/03/28 02:20:35;;;;;;;11.30;7.80;;;;;;;11.29;57.58;97799.79;110705;1260;21968;-67
2024/03/28 02:23:03;;;;;;;16.50;7.80;;;;;;;11.30;57.44;97800.97;110715;1260;21978;-68
2024/03/28 02:25:32;;;;;;;10.70;7.80;;;;;;;11.32;57.69;97802.17;110636;1260;21956;-69
2024/03/28 02:28:01;;;;;;;13.70;8.30;;;;;;;11.33;57.74;97803.06;110744;1260;22019;-69
2024/03/28 02:30:32;;;;;;;8.80;7.10;;;;;;;11.34;57.78;97802.83;110734;1260;22032;-67
2024/03/28 02:33:01;;;;;;;13.40;7.30;;;;;;;11.35;57.98;97804.89;110681;1260;23702;-68
2024/03/28 02:35:29;;;;;;;13.40;8.30;;;;;;;11.35;58.09;97807.11;110738;1260;21942;-68
2024/03/28 02:37:58;;;;;;;12.10;7.50;;;;;;;11.33;58.02;97803.02;110746;1260;21964;-68
2024/03/28 02:40:27;;;;;;;10.00;7.50;;;;;;;11.36;57.77;97799.38;110745;1257;23017;-68
2024/03/28 02:42:55;;;;;;;15.50;7.60;;;;;;;11.40;57.81;97797.55;110719;1260;23026;-68
2024/03/28 02:45:24;;;;;;;12.80;6.90;;;;;;;11.43;58.03;97794.12;110684;1260;22001;-67
2024/03/28 02:47:53;;;;;;;18.60;7.50;;;;;;;11.47;58.05;97790.15;110693;1260;23578;-68
2024/03/28 02:50:21;;;;;;;18.10;7.40;;;;;;;11.52;57.97;97787.59;110565;1260;23031;-69
2024/03/28 02:52:50;;;;;;;13.40;7.10;;;;;;;11.56;58.07;97782.83;110744;1260;22249;-69
2024/03/28 02:55:19;;;;;;;8.90;6.50;;;;;;;11.61;58.11;97779.65;110731;1260;21980;-68
2024/03/28 02:57:47;;;;;;;15.70;7.30;;;;;;;11.65;57.86;97773.17;110710;1260;22730;-69
2024/03/28 03:00:17;;;;;;;18.00;7.40;;;;;;;11.70;57.87;97769.04;110718;1260;21988;-68
2024/03/28 03:02:45;;;;;;;10.50;6.30;;;;;;;11.76;57.67;97762.74;110680;1260;23065;-68
2024/03/28 03:05:14;;;;;;;10.20;5.40;;;;;;;11.82;57.93;97764.78;110753;1260;21964;-69
2024/03/28 03:07:43;;;;;;;12.20;5.90;;;;;;;11.91;57.61;97762.00;110656;1254;23045;-69
2024/03/28 03:10:11;;;;;;;14.10;6.20;;;;;;;11.99;57.59;97754.73;110698;1248;23064;-69
2024/03/28 03:12:40;;;;;;;12.30;6.60;;;;;;;12.08;57.39;97753.91;110736;1260;22743;-69
2024/03/28 03:15:09;;;;;;;18.40;6.40;;;;;;;12.16;57.55;97754.49;111095;1257;22501;-68
2024/03/28 03:17:38;;;;;;;14.30;6.30;;;;;;;12.26;57.55;97759.92;111204;1257;23679;-67
2024/03/28 03:20:07;;;;;;;13.80;6.70;;;;;;;12.36;57.35;97757.13;111056;1257;21967;-68
2024/03/28 03:22:37;;;;;;;15.40;6.50;;;;;;;12.44;57.07;97754.33;111061;1257;21994;-67
2024/03/28 03:25:11;;;;;;;11.90;5.30;;;;;;;12.56;56.77;97756.48;110939;1257;21946;-67
2024/03/28 03:36:03;;;;;;;11.00;4.80;;;;;;;12.96;55.52;97749.61;111063;1257;21955;-68
2024/03/28 03:38:32;;;;;;;13.60;6.10;;;;;;;13.01;55.20;97739.70;111065;1257;23003;-68
2024/03/28 03:41:01;;;;;;;17.00;6.20;;;;;;;13.05;55.15;97733.92;111065;1257;22007;-68
2024/03/28 03:43:30;;;;;;;14.20;6.60;;;;;;;13.07;55.15;97730.48;111072;1248;22514;-69
2024/03/28 03:45:58;;;;;;;15.00;6.90;;;;;;;13.09;54.95;97730.67;111045;1244;23083;-70
2024/03/28 03:48:27;;;;;;;15.40;6.00;;;;;;;13.12;54.95;97735.25;111041;1257;23012;-69
2024/03/28 03:50:56;;;;;;;17.30;6.40;;;;;;;13.15;55.01;97727.92;111128;1257;22737;-69
2024/03/28 03:53:25;;;;;;;17.60;7.00;;;;;;;13.19;54.98;97727.77;110847;1257;23045;-70
2024/03/28 03:55:58;;;;;;;18.90;6.80;;;;;;;13.24;54.74;97731.41;111073;1257;23585;-68
2024/03/28 03:58:27;;;;;;;16.60;6.30;;;;;;;13.27;54.67;97732.52;111070;1245;23028;-68
2024/03/28 04:00:59;;;;;;;15.90;5.90;;;;;;;13.31;54.73;97735.54;111060;1257;23109;-71
2024/03/28 04:03:28;;;;;;;15.90;6.30;;;;;;;13.33;54.55;97731.89;111102;1257;23046;-68
2024/03/28 04:06:02;;;;;;;18.30;6.50;;;;;;;13.34;54.59;97729.13;111058;1257;21966;-69
2024/03/28 04:08:31;;;;;;;22.00;6.70;;;;;;;13.34;54.43;97725.15;111100;1257;21953;-70
2024/03/28 04:10:59;;;;;;;27.00;15.60;;;;;;;13.35;54.65;97729.75;111080;1257;22742;-70
2024/03/28 04:13:28;;;;;;;21.10;7.40;;;;;;;13.37;54.55;97729.27;111051;1257;23714;-66
2024/03/28 04:15:56;;;;;;;19.10;7.70;;;;;;;13.40;54.62;97726.64;111036;1257;21982;-68
2024/03/28 04:18:26;;;;;;;18.60;8.00;;;;;;;13.44;54.57;97728.60;111000;1257;22050;-69
2024/03/28 04:20:55;;;;;;;21.80;7.50;;;;;;;13.46;54.34;97722.21;111023;1257;23572;-69
2024/03/28 04:23:23;;;;;;;32.10;8.80;;;;;;;13.48;54.52;97717.34;111014;1257;23706;-68
2024/03/28 04:25:54;;;;;;;32.40;9.10;;;;;;;13.51;54.39;97717.53;111067;1257;24305;-68
2024/03/28 04:28:23;;;;;;;26.10;13.70;;;;;;;13.53;54.33;97721.91;111127;1257;21958;-67
2024/03/28 04:30:52;;;;;;;15.30;6.90;;;;;;;13.56;54.13;97718.15;110588;1259;21951;-67
2024/03/28 04:33:21;;;;;;;26.30;8.20;;;;;;;13.58;54.00;97714.90;110628;1261;21971;-69
2024/03/28 04:35:49;;;;;;;15.00;7.20;;;;;;;13.59;54.01;97713.36;110625;1257;23602;-67
2024/03/28 04:38:19;;;;;;;19.30;8.00;;;;;;;13.61;54.13;97716.96;110610;1261;21965;-69
2024/03/28 04:40:48;;;;;;;24.40;8.00;;;;;;;13.62;54.27;97724.15;110660;1261;21965;-69
2024/03/28 04:43:16;;;;;;;15.70;7.50;;;;;;;13.62;54.53;97722.32;110599;1260;22172;-69
2024/03/28 04:45:45;;;;;;;26.90;7.90;;;;;;;13.63;54.68;97712.98;110681;1261;23028;-68
2024/03/28 04:48:14;;;;;;;23.20;9.20;;;;;;;13.64;54.85;97713.93;110636;1258;21959;-68
2024/03/28 04:50:43;;;;;;;16.80;8.10;;;;;;;13.63;54.80;97715.51;111094;1258;23666;-68
2024/03/28 04:53:11;;;;;;;15.60;6.60;;;;;;;13.60;54.99;97717.64;111074;1258;21966;-68
2024/03/28 04:55:40;;;;;;;32.80;16.50;;;;;;;13.58;55.13;97717.05;111007;1258;21974;-69
2024/03/28 04:58:09;;;;;;;21.90;9.60;;;;;;;13.56;55.13;97717.69;111064;1258;23525;-68
2024/03/28 05:00:38;;;;;;;23.10;8.60;;;;;;;13.56;55.23;97720.30;111024;1258;22006;-68
2024/03/28 05:03:07;;;;;;;17.40;7.50;;;;;;;13.57;55.56;97730.84;111036;1257;22038;-69
2024/03/28 05:05:36;;;;;;;18.20;7.70;;;;;;;13.54;55.72;97738.16;110702;1258;23592;-69
2024/03/28 05:08:05;;;;;;;31.20;15.20;;;;;;;13.51;56.42;97736.98;110736;1258;23689;-68
2024/03/28 05:10:38;;;;;;;16.90;7.60;;;;;;;13.48;56.80;97743.81;111006;1258;23811;-67
2024/03/28 05:13:06;;;;;;;19.00;7.20;;;;;;;13.43;57.36;97751.52;111115;1258;23736;-68
2024/03/28 05:15:35;;;;;;;22.30;6.90;;;;;;;13.35;58.10;97747.57;110778;1258;21969;-68
2024/03/28 05:18:04;;;;;;;20.60;8.70;;;;;;;13.25;59.02;97746.17;111092;1258;21969;-68
2024/03/28 05:20:33;;;;;;;17.40;6.80;;;;;;;13.14;59.88;97742.91;110997;1258;22049;-68
2024/03/28 05:23:02;;;;;;;22.60;6.80;;;;;;;13.03;60.36;97742.17;110684;1258;22359;-67
2024/03/28 05:25:31;;;;;;;22.50;7.90;;;;;;;12.95;60.30;97750.65;110715;1258;21977;-68
2024/03/28 05:28:00;;;;;;;20.00;7.30;;;;;;;12.88;61.38;97751.15;111051;1258;21958;-68
2024/03/28 05:30:28;;;;;;;18.90;7.40;;;;;;;12.80;62.29;97750.19;111055;1258;21961;-68
2024/03/28 05:33:00;;;;;;;20.30;9.50;;;;;;;12.73;62.43;97745.62;111029;1258;21956;-68
2024/03/28 05:35:29;;;;;;;32.30;19.50;;;;;;;12.65;63.15;97742.70;111038;1258;23696;-69
2024/03/28 05:37:57;;;;;;;23.50;11.70;;;;;;;12.59;63.76;97736.60;111078;1257;23054;-68
2024/03/28 05:40:27;;;;;;;51.60;37.90;;;;;;;12.54;63.90;97736.09;111063;1245;22023;-69
2024/03/28 05:42:55;;;;;;;40.30;30.30;;;;;;;12.50;64.33;97732.86;111070;1257;21969;-68
2024/03/28 05:45:24;;;;;;;32.70;16.70;;;;;;;12.49;64.68;97730.88;111071;1257;23689;-70
2024/03/28 05:47:53;;;;;;;19.10;11.80;;;;;;;12.47;65.20;97732.65;110778;1257;21952;-67
2024/03/28 05:50:22;;;;;;;28.10;12.80;;;;;;;12.44;65.14;97735.67;111094;1257;21962;-69
2024/03/28 05:52:51;;;;;;;21.40;10.30;;;;;;;12.42;65.56;97735.56;111029;1250;21958;-68
2024/03/28 05:55:20;;;;;;;28.70;13.40;;;;;;;12.39;65.77;97730.55;111098;1257;21965;-68
2024/03/28 05:57:49;;;;;;;21.70;9.90;;;;;;;12.41;66.13;97729.11;111102;1257;22006;-68
2024/03/28 06:00:18;;;;;;;30.40;9.10;;;;;;;12.43;66.57;97727.97;111124;1257;21966;-69
2024/03/28 06:02:47;;;;;;;19.70;9.50;;;;;;;12.43;66.45;97728.50;111069;1257;21957;-68
2024/03/28 06:05:15;;;;;;;20.30;9.70;;;;;;;12.47;66.30;97726.43;111076;1255;21947;-69
2024/03/28 06:07:44;;;;;;;26.60;9.40;;;;;;;12.49;66.49;97726.66;111065;1257;22812;-67
2024/03/28 06:10:13;;;;;;;25.90;9.60;;;;;;;12.45;66.31;97721.80;111082;1257;23707;-68
2024/03/28 06:12:41;;;;;;;28.20;8.90;;;;;;;12.46;66.39;97723.64;110751;1257;22799;-68
2024/03/28 06:15:10;;;;;;;20.70;8.40;;;;;;;12.45;66.53;97724.98;111082;1257;24272;-69
2024/03/28 06:17:39;;;;;;;27.50;9.80;;;;;;;12.42;66.37;97724.38;111056;1257;22920;-68
2024/03/28 06:20:10;;;;;;;22.10;8.50;;;;;;;12.41;66.67;97723.05;111015;1257;23679;-67
2024/03/28 06:22:38;;;;;;;25.70;8.50;;;;;;;12.41;66.20;97727.49;110982;1257;21958;-68
2024/03/28 06:25:07;;;;;;;24.20;8.10;;;;;;;12.42;66.42;97731.65;111079;1257;23572;-68
2024/03/28 06:27:36;;;;;;;29.20;10.40;;;;;;;12.44;66.57;97731.39;110998;1257;21957;-68
2024/03/28 06:30:06;;;;;;;42.40;13.60;;;;;;;12.48;66.42;97727.98;111083;1257;22008;-68
2024/03/28 06:32:34;;;;;;;34.60;11.90;;;;;;;12.53;66.03;97724.38;111044;1257;22302;-69
2024/03/28 06:35:04;;;;;;;35.70;17.00;;;;;;;12.58;66.03;97726.73;111070;1255;21962;-69
2024/03/28 06:37:32;;;;;;;28.40;12.60;;;;;;;12.64;65.64;97731.13;110840;1257;22053;-71
2024/03/28 06:40:01;;;;;;;25.10;9.80;;;;;;;12.71;65.55;97735.20;111129;1244;21974;-68
2024/03/28 06:42:30;;;;;;;33.90;11.50;;;;;;;12.74;65.25;97732.95;111074;1257;21955;-76
2024/03/28 06:44:59;;;;;;;30.00;10.20;;;;;;;12.78;65.06;97731.61;111076;1257;21963;-68
2024/03/28 06:47:27;;;;;;;23.70;8.10;;;;;;;12.81;64.94;97736.83;111071;1257;22043;-71
2024/03/28 06:49:56;;;;;;;27.80;9.10;;;;;;;12.86;64.56;97732.00;111049;1257;21990;-69
2024/03/28 06:52:29;;;;;;;28.90;9.70;;;;;;;12.89;64.60;97732.16;111072;1257;23309;-69
2024/03/28 06:54:58;;;;;;;31.40;13.50;;;;;;;12.91;64.27;97730.52;111064;1257;22206;-69
2024/03/28 06:57:27;;;;;;;31.80;10.70;;;;;;;12.92;63.98;97717.61;111072;1257;23598;-69
2024/03/28 06:59:55;;;;;;;25.10;8.50;;;;;;;12.95;63.96;97718.00;110907;1257;21967;-69
2024/03/28 07:02:24;;;;;;;32.60;10.30;;;;;;;12.98;63.71;97728.02;111058;1255;21962;-69
2024/03/28 07:04:53;;;;;;;25.70;9.70;;;;;;;13.01;63.83;97726.66;111064;1257;21987;-71
2024/03/28 07:07:22;;;;;;;35.10;10.30;;;;;;;13.06;63.65;97729.41;110601;1257;21951;-71
2024/03/28 07:09:51;;;;;;;39.40;9.90;;;;;;;13.08;63.77;97734.66;111097;1257;22015;-70
2024/03/28 07:12:20;;;;;;;26.40;10.00;;;;;;;13.08;64.08;97733.46;111056;1255;23045;-69
2024/03/28 07:14:49;;;;;;;34.20;11.20;;;;;;;13.04;64.30;97729.55;110737;1257;23028;-70
2024/03/28 07:17:17;;;;;;;32.40;12.30;;;;;;;13.06;64.20;97732.06;111112;1257;21982;-70
2024/03/28 07:19:46;;;;;;;31.50;12.10;;;;;;;13.10;64.32;97731.08;111070;1257;23615;-70
2024/03/28 07:22:15;;;;;;;31.80;11.70;;;;;;;13.11;64.55;97732.65;111008;1257;22009;-70
2024/03/28 07:24:43;;;;;;;32.90;12.40;;;;;;;13.15;64.68;97733.55;111100;1257;22157;-70
2024/03/28 07:27:12;;;;;;;37.60;13.40;;;;;;;13.21;65.11;97735.53;111097;1257;21952;-70
2024/03/28 07:29:41;;;;;;;41.40;14.10;;;;;;;13.28;64.87;97736.56;111155;1257;21958;-71
2024/03/28 07:32:09;;;;;;;29.80;11.70;;;;;;;13.35;64.62;97735.20;111080;1257;21953;-69
2024/03/28 07:34:38;;;;;;;41.60;18.00;;;;;;;13.43;64.56;97740.42;111411;1257;21964;-69
2024/03/28 07:37:06;;;;;;;40.00;14.20;;;;;;;13.53;64.53;97738.73;111922;1257;21994;-70
2024/03/28 07:39:35;;;;;;;39.20;12.60;;;;;;;13.62;64.15;97738.97;111315;1257;22409;-64
2024/03/28 07:42:04;;;;;;;31.80;11.80;;;;;;;13.71;63.96;97736.42;110751;1257;21967;-68
2024/03/28 07:44:33;;;;;;;35.50;11.00;;;;;;;13.71;63.58;97738.14;110925;1257;21964;-66
2024/03/28 07:47:02;;;;;;;34.40;11.70;;;;;;;13.76;63.75;97736.63;111113;1244;22026;-65
2024/03/28 07:49:30;;;;;;;37.90;11.10;;;;;;;13.83;63.89;97735.38;111814;1257;22451;-69
2024/03/28 07:52:01;;;;;;;43.40;14.20;;;;;;;13.84;63.53;97735.68;112370;1257;22094;-70
2024/03/28 07:54:30;;;;;;;39.30;12.50;;;;;;;13.84;63.45;97737.60;112774;1257;22575;-69
2024/03/28 07:57:05;;;;;;;28.00;11.90;;;;;;;13.85;63.23;97734.98;112533;1257;22398;-70
2024/03/28 07:59:34;;;;;;;36.60;11.60;;;;;;;13.85;63.26;97733.23;112238;1257;21929;-69
2024/03/28 08:02:02;;;;;;;37.10;13.50;;;;;;;13.84;63.37;97727.76;111401;1257;21952;-69
2024/03/28 08:04:32;;;;;;;39.40;13.20;;;;;;;13.83;63.33;97728.04;111048;1257;22765;-69
2024/03/28 08:07:02;;;;;;;33.90;11.80;;;;;;;13.83;63.52;97733.17;111077;1257;23717;-70
2024/03/28 08:09:31;;;;;;;41.70;14.00;;;;;;;13.86;63.53;97737.94;111074;1257;21955;-69
2024/03/28 08:12:07;;;;;;;42.30;14.30;;;;;;;13.90;63.29;97740.88;110922;1257;200996;-69
2024/03/28 08:14:36;;;;;;;45.90;13.10;;;;;;;13.94;63.07;97744.58;111045;1255;23160;-69
2024/03/28 08:17:05;;;;;;;37.50;12.40;;;;;;;14.01;62.77;97745.73;111083;1257;24350;-70
2024/03/28 08:19:34;;;;;;;46.00;14.40;;;;;;;14.11;62.78;97742.73;111074;1257;23022;-68
2024/03/28 08:22:03;;;;;;;35.60;13.10;;;;;;;14.28;62.49;97744.84;110850;1257;21956;-68
2024/03/28 08:24:32;;;;;;;33.00;12.90;;;;;;;14.46;62.01;97739.75;111120;1257;21958;-69
2024/03/28 08:27:00;;;;;;;30.40;11.40;;;;;;;14.59;61.37;97733.81;111086;1257;23011;-69
2024/03/28 08:29:29;;;;;;;38.40;12.00;;;;;;;14.75;61.30;97736.17;111063;1257;21956;-69
2024/03/28 08:31:58;;;;;;;31.90;11.40;;;;;;;15.04;61.05;97733.17;111060;1255;21963;-69
2024/03/28 08:34:27;;;;;;;35.10;11.60;;;;;;;15.42;60.01;97728.69;111103;1257;23475;-68
2024/03/28 08:36:55;;;;;;;40.10;11.10;;;;;;;15.88;58.65;97727.50;110991;1256;21984;-70
2024/03/28 08:39:24;;;;;;;37.30;11.40;;;;;;;16.35;56.94;97724.66;111098;1257;22028;-69
2024/03/28 08:41:53;;;;;;;32.00;10.60;;;;;;;16.72;56.21;97717.60;111070;1257;22793;-69
2024/03/28 08:44:22;;;;;;;25.40;10.10;;;;;;;17.00;54.99;97719.38;111073;1257;21956;-69
2024/03/28 08:46:51;;;;;;;35.70;10.20;;;;;;;17.17;53.82;97716.84;110911;1257;21974;-69
2024/03/28 08:49:20;;;;;;;30.20;10.90;;;;;;;17.30;53.67;97720.45;111113;1257;23797;-69
2024/03/28 08:51:48;;;;;;;33.20;9.80;;;;;;;17.37;53.45;97720.98;111039;1257;21969;-69
2024/03/28 08:54:17;;;;;;;35.70;11.40;;;;;;;17.33;53.16;97722.52;111111;1257;21956;-68
2024/03/28 08:56:46;;;;;;;35.20;10.90;;;;;;;17.35;53.15;97727.96;111100;1257;21977;-69
2024/03/28 08:59:15;;;;;;;28.30;10.80;;;;;;;17.34;52.63;97726.65;110842;1257;23013;-68
2024/03/28 09:01:43;;;;;;;25.70;9.50;;;;;;;17.21;53.12;97714.79;111142;1254;21964;-69
2024/03/28 09:04:17;;;;;;;25.60;10.50;;;;;;;17.20;52.91;97710.73;110835;1257;21955;-69
2024/03/28 09:06:46;;;;;;;35.30;9.80;;;;;;;17.29;52.78;97717.16;111164;1257;21942;-68
2024/03/28 09:09:15;;;;;;;19.70;8.10;;;;;;;17.20;52.24;97714.43;111042;1257;21957;-68
2024/03/28 09:11:45;;;;;;;32.70;10.20;;;;;;;17.05;52.57;97713.11;110769;1254;24306;-69
2024/03/28 09:14:15;;;;;;;28.60;10.40;;;;;;;16.91;52.80;97712.07;110783;1257;21960;-69
2024/03/28 09:16:43;;;;;;;28.00;9.90;;;;;;;16.90;53.08;97708.67;111057;1257;22184;-69
2024/03/28 09:19:12;;;;;;;30.40;9.80;;;;;;;16.91;52.87;97710.36;111080;1257;23563;-68
2024/03/28 09:21:41;;;;;;;20.20;7.60;;;;;;;16.81;52.76;97715.69;110853;1257;21958;-68
2024/03/28 09:24:10;;;;;;;22.80;8.40;;;;;;;16.66;53.08;97717.65;111104;1257;22064;-70
2024/03/28 09:26:39;;;;;;;18.00;7.20;;;;;;;16.49;53.40;97721.67;111096;1255;21958;-69
2024/03/28 09:29:13;;;;;;;15.80;7.10;;;;;;;16.35;53.56;97723.40;110996;1254;23016;-69
2024/03/28 09:31:43;;;;;;;17.90;6.90;;;;;;;16.17;53.49;97731.25;111138;1255;23012;-68
2024/03/28 09:34:12;;;;;;;19.10;6.90;;;;;;;16.05;53.77;97728.29;111126;1257;22194;-70
2024/03/28 09:36:41;;;;;;;23.20;9.40;;;;;;;15.93;53.77;97722.52;111098;1257;24316;-69
2024/03/28 09:39:14;;;;;;;19.50;8.10;;;;;;;15.84;53.98;97723.06;111036;1257;21952;-69
2024/03/28 09:41:46;;;;;;;21.20;7.10;;;;;;;15.85;54.12;97720.43;110967;1257;23585;-66
2024/03/28 09:44:20;;;;;;;13.80;6.30;;;;;;;15.90;53.93;97728.08;110739;1257;21970;-66
2024/03/28 09:46:50;;;;;;;13.10;5.60;;;;;;;15.93;53.88;97736.80;110849;1257;22102;-65
2024/03/28 09:49:26;;;;;;;20.90;6.20;;;;;;;15.89;53.95;97735.14;110748;1257;21956;-66
2024/03/28 09:51:56;;;;;;;16.30;5.90;;;;;;;15.79;54.18;97738.17;110875;1257;21964;-66
2024/03/28 09:54:26;;;;;;;17.80;7.10;;;;;;;15.72;54.38;97730.95;110878;1257;22760;-66
2024/03/28 09:56:55;;;;;;;17.90;6.00;;;;;;;15.63;54.61;97734.53;110830;1257;22125;-69
2024/03/28 09:59:24;;;;;;;14.70;6.30;;;;;;;15.55;54.58;97748.34;110768;1246;21948;-64
2024/03/28 10:01:58;;;;;;;17.80;6.50;;;;;;;15.46;54.78;97753.12;110682;1257;21961;-65
2024/03/28 10:04:30;;;;;;;14.70;5.70;;;;;;;15.37;54.70;97778.40;110712;1257;21953;-66
2024/03/28 10:06:59;;;;;;;15.90;6.20;;;;;;;15.32;55.02;97790.11;110879;1257;21929;-69
2024/03/28 10:09:28;;;;;;;14.50;5.20;;;;;;;15.31;55.05;97801.24;110842;1255;21954;-62
2024/03/28 10:11:57;;;;;;;6.20;4.10;;;;;;;15.32;55.15;97812.58;110779;1257;21958;-62
2024/03/28 10:14:33;;;;;;;9.30;4.10;;;;;;;15.26;55.13;97819.30;110820;1256;21977;-63
2024/03/28 10:17:02;;;;;;;7.50;4.20;;;;;;;15.16;55.44;97831.91;110781;1257;21972;-66
2024/03/28 10:19:33;;;;;;;7.60;4.50;;;;;;;15.00;56.01;97852.90;110905;1257;23596;-69
2024/03/28 10:22:11;;;;;;;7.90;3.90;;;;;;;14.76;56.43;97857.42;111227;1252;21945;-69
2024/03/28 10:24:48;;;;;;;5.60;3.70;;;;;;;14.36;57.24;97869.79;110996;1257;23576;-69
2024/03/28 10:27:21;;;;;;;5.80;3.80;;;;;;;14.11;57.73;97886.39;110996;1257;21968;-69
2024/03/28 10:29:55;;;;;;;4.70;3.10;;;;;;;13.93;58.28;97893.60;111068;1257;23148;-69
2024/03/28 10:32:25;;;;;;;5.50;4.40;;;;;;;13.78;58.57;97898.81;111113;1257;23576;-70
2024/03/28 10:34:54;;;;;;;3.50;3.10;;;;;;;13.66;58.79;97905.16;110748;1257;23611;-69
2024/03/28 10:37:23;;;;;;;4.10;3.30;;;;;;;13.58;58.93;97904.05;111050;1257;21967;-69
2024/03/28 10:39:57;;;;;;;6.20;4.60;;;;;;;13.54;59.11;97906.86;111163;1257;22426;-69
2024/03/28 10:42:29;;;;;;;7.50;4.10;;;;;;;13.54;59.29;97911.84;111040;1257;24279;-69
2024/03/28 10:44:59;;;;;;;6.20;3.30;;;;;;;13.59;59.18;97916.83;111095;1257;23579;-69
2024/03/28 10:47:30;;;;;;;5.50;3.20;;;;;;;13.67;59.19;97913.91;110816;1257;21959;-68
2024/03/28 10:50:15;;;;;;;10.00;3.50;;;;;;;13.80;59.01;97912.17;111105;1257;22025;-69
2024/03/28 10:52:51;;;;;;;4.60;2.80;;;;;;;13.93;58.70;97915.17;111000;1257;21966;-68
2024/03/28 10:55:32;;;;;;;4.40;2.40;;;;;;;14.13;58.13;97913.20;111084;1257;23662;-68
2024/03/28 10:58:07;;;;;;;3.90;2.80;;;;;;;14.42;57.43;97916.91;111078;1257;22933;-68
2024/03/28 11:00:37;;;;;;;3.20;2.50;;;;;;;14.65;56.52;97924.83;111093;1257;23773;-68
2024/03/28 11:03:11;;;;;;;6.90;3.20;;;;;;;14.80;55.78;97931.31;110800;1257;23576;-68
2024/03/28 11:05:40;;;;;;;4.30;3.00;;;;;;;14.85;55.12;97936.67;110819;1257;23513;-69
2024/03/28 11:08:09;;;;;;;6.80;3.30;;;;;;;14.93;54.84;97939.83;111024;1257;21955;-69
2024/03/28 11:10:38;;;;;;;5.40;3.70;;;;;;;15.14;54.65;97939.02;111064;1257;21961;-70
2024/03/28 11:13:07;;;;;;;4.50;3.40;;;;;;;15.28;53.85;97944.96;110808;1257;22917;-70
2024/03/28 11:15:36;;;;;;;3.20;2.90;;;;;;;15.30;53.02;97948.23;111094;1257;21955;-69
2024/03/28 11:18:05;;;;;;;5.70;2.90;;;;;;;15.24;52.59;97954.96;110956;1257;22361;-68
2024/03/28 11:20:33;;;;;;;4.10;2.80;;;;;;;15.11;52.29;97962.13;111139;1257;21973;-69
2024/03/28 11:23:06;;;;;;;11.60;3.20;;;;;;;14.96;52.19;97967.83;111001;1257;23580;-68
2024/03/28 11:25:36;;;;;;;4.40;2.90;;;;;;;14.74;52.26;97971.83;110720;1257;21973;-69
2024/03/28 11:28:10;;;;;;;2.60;2.00;;;;;;;14.48;52.08;97969.09;111073;1257;23826;-71
2024/03/28 11:30:52;;;;;;;3.00;2.40;;;;;;;14.27;52.00;97966.10;111018;1257;21956;-69
2024/03/28 11:33:58;;;;;;;7.80;2.10;;;;;;;14.09;52.19;97974.25;111107;1257;21960;-66
2024/03/28 11:36:29;;;;;;;4.40;3.20;;;;;;;13.99;52.97;97967.13;110796;1257;23017;-65